sensor_id;sensor_type;location;lat;lon;timestamp;P1;durP1;ratioP1;P2;durP2;ratioP2
79640;SDS011;69115;49.904;14.390;2024-03-02T00:02:10;84.93;;;39.35;;
79640;SDS011;69115;49.904;14.390;2024-03-02T00:04:36;87.05;;;40.17;;
79640;SDS011;69115;49.904;14.390;2024-03-02T00:07:02;72.97;;;35.00;;
79640;SDS011;69115;49.904;14.390;2024-03-02T00:09:27;105.05;;;46.78;;
79640;SDS011;69115;49.904;14.390;2024-03-02T00:11:54;89.50;;;40.03;;
79640;SDS011;69115;49.904;14.390;2024-03-02T00:14:19;115.88;;;50.97;;
79640;SDS011;69115;49.904;14.390;2024-03-02T00:16:44;96.90;;;45.88;;
79640;SDS011;69115;49.904;14.390;2024-03-02T00:19:10;111.70;;;50.45;;
79640;SDS011;69115;49.904;14.390;2024-03-02T00:21:36;101.50;;;45.30;;
79640;SDS011;69115;49.904;14.390;2024-03-02T00:24:04;95.07;;;42.00;;
79640;SDS011;69115;49.904;14.390;2024-03-02T00:26:34;106.32;;;49.17;;
79640;SDS011;69115;49.904;14.390;2024-03-02T00:28:59;103.10;;;48.70;;
79640;SDS011;69115;49.904;14.390;2024-03-02T00:31:25;107.03;;;49.83;;
79640;SDS011;69115;49.904;14.390;2024-03-02T00:33:50;102.55;;;47.17;;
79640;SDS011;69115;49.904;14.390;2024-03-02T00:36:25;94.30;;;45.42;;
79640;SDS011;69115;49.904;14.390;2024-03-02T00:38:52;111.95;;;50.53;;
79640;SDS011;69115;49.904;14.390;2024-03-02T00:41:21;113.40;;;52.88;;
79640;SDS011;69115;49.904;14.390;2024-03-02T00:43:59;118.45;;;54.38;;
79640;SDS011;69115;49.904;14.390;2024-03-02T00:46:27;119.80;;;57.47;;
79640;SDS011;69115;49.904;14.390;2024-03-02T00:48:57;122.53;;;56.35;;
79640;SDS011;69115;49.904;14.390;2024-03-02T00:51:24;124.43;;;55.30;;
79640;SDS011;69115;49.904;14.390;2024-03-02T00:53:51;129.13;;;58.55;;
79640;SDS011;69115;49.904;14.390;2024-03-02T00:56:17;115.80;;;53.75;;
79640;SDS011;69115;49.904;14.390;2024-03-02T00:58:43;121.40;;;56.97;;
79640;SDS011;69115;49.904;14.390;2024-03-02T01:01:08;116.82;;;55.22;;
79640;SDS011;69115;49.904;14.390;2024-03-02T01:03:34;126.50;;;55.90;;
79640;SDS011;69115;49.904;14.390;2024-03-02T01:06:00;123.93;;;57.25;;
79640;SDS011;69115;49.904;14.390;2024-03-02T01:08:25;129.90;;;56.17;;
79640;SDS011;69115;49.904;14.390;2024-03-02T01:10:51;115.50;;;54.42;;
79640;SDS011;69115;49.904;14.390;2024-03-02T01:13:17;118.88;;;55.08;;
79640;SDS011;69115;49.904;14.390;2024-03-02T01:15:42;119.90;;;55.35;;
79640;SDS011;69115;49.904;14.390;2024-03-02T01:18:07;119.45;;;54.92;;
79640;SDS011;69115;49.904;14.390;2024-03-02T01:20:33;119.97;;;53.40;;
79640;SDS011;69115;49.904;14.390;2024-03-02T01:22:59;116.82;;;52.75;;
79640;SDS011;69115;49.904;14.390;2024-03-02T01:25:24;124.32;;;53.17;;
79640;SDS011;69115;49.904;14.390;2024-03-02T01:27:50;122.10;;;52.97;;
79640;SDS011;69115;49.904;14.390;2024-03-02T01:30:15;121.53;;;53.20;;
79640;SDS011;69115;49.904;14.390;2024-03-02T01:32:41;106.82;;;49.33;;
79640;SDS011;69115;49.904;14.390;2024-03-02T01:35:06;110.93;;;51.03;;
79640;SDS011;69115;49.904;14.390;2024-03-02T01:37:32;120.72;;;53.55;;
79640;SDS011;69115;49.904;14.390;2024-03-02T01:39:57;103.03;;;49.38;;
79640;SDS011;69115;49.904;14.390;2024-03-02T01:42:23;127.20;;;56.38;;
79640;SDS011;69115;49.904;14.390;2024-03-02T01:44:49;95.72;;;46.25;;
79640;SDS011;69115;49.904;14.390;2024-03-02T01:47:14;117.07;;;53.97;;
79640;SDS011;69115;49.904;14.390;2024-03-02T01:49:39;120.00;;;54.73;;
79640;SDS011;69115;49.904;14.390;2024-03-02T01:52:06;95.78;;;44.88;;
79640;SDS011;69115;49.904;14.390;2024-03-02T01:54:31;112.93;;;49.83;;
79640;SDS011;69115;49.904;14.390;2024-03-02T01:56:57;101.88;;;47.10;;
79640;SDS011;69115;49.904;14.390;2024-03-02T01:59:22;103.47;;;48.85;;
79640;SDS011;69115;49.904;14.390;2024-03-02T02:01:47;88.28;;;42.92;;
79640;SDS011;69115;49.904;14.390;2024-03-02T02:04:13;119.05;;;54.17;;
79640;SDS011;69115;49.904;14.390;2024-03-02T02:06:38;92.95;;;44.47;;
79640;SDS011;69115;49.904;14.390;2024-03-02T02:09:04;123.10;;;55.70;;
79640;SDS011;69115;49.904;14.390;2024-03-02T02:11:29;120.68;;;56.70;;
79640;SDS011;69115;49.904;14.390;2024-03-02T02:13:54;130.93;;;57.47;;
79640;SDS011;69115;49.904;14.390;2024-03-02T02:16:23;138.85;;;60.50;;
79640;SDS011;69115;49.904;14.390;2024-03-02T02:18:48;129.00;;;58.38;;
79640;SDS011;69115;49.904;14.390;2024-03-02T02:21:13;148.63;;;65.97;;
79640;SDS011;69115;49.904;14.390;2024-03-02T02:23:39;148.13;;;63.77;;
79640;SDS011;69115;49.904;14.390;2024-03-02T02:26:04;128.07;;;56.63;;
79640;SDS011;69115;49.904;14.390;2024-03-02T02:28:29;128.85;;;59.67;;
79640;SDS011;69115;49.904;14.390;2024-03-02T02:30:55;148.70;;;66.38;;
79640;SDS011;69115;49.904;14.390;2024-03-02T02:33:25;151.98;;;66.60;;
79640;SDS011;69115;49.904;14.390;2024-03-02T02:35:50;118.38;;;54.75;;
79640;SDS011;69115;49.904;14.390;2024-03-02T02:38:15;119.23;;;55.90;;
79640;SDS011;69115;49.904;14.390;2024-03-02T02:40:41;121.40;;;56.13;;
79640;SDS011;69115;49.904;14.390;2024-03-02T02:43:06;129.10;;;56.83;;
79640;SDS011;69115;49.904;14.390;2024-03-02T02:45:32;128.38;;;55.30;;
79640;SDS011;69115;49.904;14.390;2024-03-02T02:47:57;127.95;;;53.88;;
79640;SDS011;69115;49.904;14.390;2024-03-02T02:50:22;118.03;;;51.33;;
79640;SDS011;69115;49.904;14.390;2024-03-02T02:52:48;112.23;;;47.37;;
79640;SDS011;69115;49.904;14.390;2024-03-02T02:55:13;112.15;;;48.97;;
79640;SDS011;69115;49.904;14.390;2024-03-02T02:57:40;102.85;;;47.65;;
79640;SDS011;69115;49.904;14.390;2024-03-02T03:00:10;100.93;;;44.80;;
79640;SDS011;69115;49.904;14.390;2024-03-02T03:02:41;104.45;;;45.63;;
79640;SDS011;69115;49.904;14.390;2024-03-02T03:05:07;94.75;;;43.70;;
79640;SDS011;69115;49.904;14.390;2024-03-02T03:07:33;86.90;;;40.47;;
79640;SDS011;69115;49.904;14.390;2024-03-02T03:10:01;90.15;;;43.08;;
79640;SDS011;69115;49.904;14.390;2024-03-02T03:12:28;88.35;;;38.50;;
79640;SDS011;69115;49.904;14.390;2024-03-02T03:14:53;82.68;;;38.72;;
79640;SDS011;69115;49.904;14.390;2024-03-02T03:17:19;79.85;;;37.92;;
79640;SDS011;69115;49.904;14.390;2024-03-02T03:19:44;80.63;;;37.63;;
79640;SDS011;69115;49.904;14.390;2024-03-02T03:22:09;82.70;;;36.57;;
79640;SDS011;69115;49.904;14.390;2024-03-02T03:24:35;78.53;;;35.47;;
79640;SDS011;69115;49.904;14.390;2024-03-02T03:27:00;71.25;;;33.40;;
79640;SDS011;69115;49.904;14.390;2024-03-02T03:29:25;68.57;;;32.05;;
79640;SDS011;69115;49.904;14.390;2024-03-02T03:31:51;66.80;;;30.77;;
79640;SDS011;69115;49.904;14.390;2024-03-02T03:34:16;69.68;;;31.35;;
79640;SDS011;69115;49.904;14.390;2024-03-02T03:36:42;70.30;;;32.57;;
79640;SDS011;69115;49.904;14.390;2024-03-02T03:39:07;66.95;;;31.27;;
79640;SDS011;69115;49.904;14.390;2024-03-02T03:41:33;70.30;;;32.30;;
79640;SDS011;69115;49.904;14.390;2024-03-02T03:43:58;67.40;;;30.80;;
79640;SDS011;69115;49.904;14.390;2024-03-02T03:46:23;68.10;;;30.92;;
79640;SDS011;69115;49.904;14.390;2024-03-02T03:48:49;61.05;;;30.00;;
79640;SDS011;69115;49.904;14.390;2024-03-02T03:51:14;62.30;;;30.52;;
79640;SDS011;69115;49.904;14.390;2024-03-02T03:53:39;64.30;;;28.90;;
79640;SDS011;69115;49.904;14.390;2024-03-02T03:56:05;60.83;;;27.95;;
79640;SDS011;69115;49.904;14.390;2024-03-02T03:58:30;58.13;;;29.77;;
79640;SDS011;69115;49.904;14.390;2024-03-02T04:00:56;60.33;;;29.55;;
79640;SDS011;69115;49.904;14.390;2024-03-02T04:03:21;56.83;;;26.08;;
79640;SDS011;69115;49.904;14.390;2024-03-02T04:05:47;56.03;;;27.02;;
79640;SDS011;69115;49.904;14.390;2024-03-02T04:08:12;56.72;;;27.42;;
79640;SDS011;69115;49.904;14.390;2024-03-02T04:10:37;53.23;;;26.07;;
79640;SDS011;69115;49.904;14.390;2024-03-02T04:13:03;50.87;;;24.13;;
79640;SDS011;69115;49.904;14.390;2024-03-02T04:15:28;51.83;;;24.52;;
79640;SDS011;69115;49.904;14.390;2024-03-02T04:17:53;52.45;;;25.00;;
79640;SDS011;69115;49.904;14.390;2024-03-02T04:20:20;49.67;;;24.30;;
79640;SDS011;69115;49.904;14.390;2024-03-02T04:22:45;48.80;;;24.23;;
79640;SDS011;69115;49.904;14.390;2024-03-02T04:25:10;49.08;;;24.23;;
79640;SDS011;69115;49.904;14.390;2024-03-02T04:27:36;45.27;;;23.00;;
79640;SDS011;69115;49.904;14.390;2024-03-02T04:30:01;47.83;;;24.38;;
79640;SDS011;69115;49.904;14.390;2024-03-02T04:32:28;50.45;;;23.77;;
79640;SDS011;69115;49.904;14.390;2024-03-02T04:34:54;49.28;;;24.48;;
79640;SDS011;69115;49.904;14.390;2024-03-02T04:37:19;51.95;;;24.60;;
79640;SDS011;69115;49.904;14.390;2024-03-02T04:39:45;49.42;;;23.80;;
79640;SDS011;69115;49.904;14.390;2024-03-02T04:42:10;50.67;;;23.48;;
79640;SDS011;69115;49.904;14.390;2024-03-02T04:44:36;47.05;;;23.70;;
79640;SDS011;69115;49.904;14.390;2024-03-02T04:47:03;54.90;;;23.98;;
79640;SDS011;69115;49.904;14.390;2024-03-02T04:49:28;46.42;;;22.92;;
79640;SDS011;69115;49.904;14.390;2024-03-02T04:51:55;47.10;;;23.45;;
79640;SDS011;69115;49.904;14.390;2024-03-02T04:54:20;47.30;;;23.15;;
79640;SDS011;69115;49.904;14.390;2024-03-02T04:56:45;49.47;;;24.53;;
79640;SDS011;69115;49.904;14.390;2024-03-02T04:59:20;49.03;;;23.65;;
79640;SDS011;69115;49.904;14.390;2024-03-02T05:01:45;47.92;;;23.45;;
79640;SDS011;69115;49.904;14.390;2024-03-02T05:04:11;48.70;;;23.02;;
79640;SDS011;69115;49.904;14.390;2024-03-02T05:06:37;44.78;;;22.35;;
79640;SDS011;69115;49.904;14.390;2024-03-02T05:09:04;49.92;;;24.10;;
79640;SDS011;69115;49.904;14.390;2024-03-02T05:11:29;49.60;;;24.98;;
79640;SDS011;69115;49.904;14.390;2024-03-02T05:14:00;50.38;;;23.80;;
79640;SDS011;69115;49.904;14.390;2024-03-02T05:16:26;47.53;;;23.37;;
79640;SDS011;69115;49.904;14.390;2024-03-02T05:18:51;48.87;;;23.57;;
79640;SDS011;69115;49.904;14.390;2024-03-02T05:21:16;54.53;;;24.87;;
79640;SDS011;69115;49.904;14.390;2024-03-02T05:23:42;46.47;;;22.77;;
79640;SDS011;69115;49.904;14.390;2024-03-02T05:26:07;50.30;;;22.77;;
79640;SDS011;69115;49.904;14.390;2024-03-02T05:28:33;44.83;;;21.27;;
79640;SDS011;69115;49.904;14.390;2024-03-02T05:30:58;47.15;;;23.30;;
79640;SDS011;69115;49.904;14.390;2024-03-02T05:33:23;48.10;;;21.90;;
79640;SDS011;69115;49.904;14.390;2024-03-02T05:35:49;46.40;;;24.08;;
79640;SDS011;69115;49.904;14.390;2024-03-02T05:38:17;46.88;;;23.05;;
79640;SDS011;69115;49.904;14.390;2024-03-02T05:40:42;47.43;;;23.10;;
79640;SDS011;69115;49.904;14.390;2024-03-02T05:43:08;50.78;;;24.38;;
79640;SDS011;69115;49.904;14.390;2024-03-02T05:45:33;44.92;;;22.52;;
79640;SDS011;69115;49.904;14.390;2024-03-02T05:47:58;43.90;;;22.67;;
79640;SDS011;69115;49.904;14.390;2024-03-02T05:50:24;49.28;;;22.88;;
79640;SDS011;69115;49.904;14.390;2024-03-02T05:52:49;47.88;;;23.70;;
79640;SDS011;69115;49.904;14.390;2024-03-02T05:55:14;50.70;;;24.17;;
79640;SDS011;69115;49.904;14.390;2024-03-02T05:57:40;47.47;;;23.17;;
79640;SDS011;69115;49.904;14.390;2024-03-02T06:00:05;46.73;;;23.63;;
79640;SDS011;69115;49.904;14.390;2024-03-02T06:02:33;48.60;;;25.17;;
79640;SDS011;69115;49.904;14.390;2024-03-02T06:05:00;56.42;;;25.60;;
79640;SDS011;69115;49.904;14.390;2024-03-02T06:07:25;58.42;;;26.80;;
79640;SDS011;69115;49.904;14.390;2024-03-02T06:09:50;53.00;;;26.43;;
79640;SDS011;69115;49.904;14.390;2024-03-02T06:12:17;47.20;;;24.17;;
79640;SDS011;69115;49.904;14.390;2024-03-02T06:14:43;49.10;;;23.17;;
79640;SDS011;69115;49.904;14.390;2024-03-02T06:17:08;51.78;;;24.90;;
79640;SDS011;69115;49.904;14.390;2024-03-02T06:19:33;57.85;;;25.10;;
79640;SDS011;69115;49.904;14.390;2024-03-02T06:21:59;55.33;;;25.35;;
79640;SDS011;69115;49.904;14.390;2024-03-02T06:24:24;59.45;;;26.15;;
79640;SDS011;69115;49.904;14.390;2024-03-02T06:26:51;54.33;;;25.67;;
79640;SDS011;69115;49.904;14.390;2024-03-02T06:29:17;52.63;;;24.67;;
79640;SDS011;69115;49.904;14.390;2024-03-02T06:31:42;54.42;;;25.88;;
79640;SDS011;69115;49.904;14.390;2024-03-02T06:34:08;49.60;;;24.05;;
79640;SDS011;69115;49.904;14.390;2024-03-02T06:36:33;48.53;;;21.17;;
79640;SDS011;69115;49.904;14.390;2024-03-02T06:38:59;50.38;;;22.33;;
79640;SDS011;69115;49.904;14.390;2024-03-02T06:41:24;50.55;;;24.05;;
79640;SDS011;69115;49.904;14.390;2024-03-02T06:43:51;51.78;;;23.42;;
79640;SDS011;69115;49.904;14.390;2024-03-02T06:46:24;54.15;;;24.92;;
79640;SDS011;69115;49.904;14.390;2024-03-02T06:48:49;45.58;;;22.45;;
79640;SDS011;69115;49.904;14.390;2024-03-02T06:51:15;50.00;;;23.40;;
79640;SDS011;69115;49.904;14.390;2024-03-02T06:53:40;53.47;;;23.80;;
79640;SDS011;69115;49.904;14.390;2024-03-02T06:56:06;48.65;;;22.90;;
79640;SDS011;69115;49.904;14.390;2024-03-02T06:58:32;50.33;;;22.65;;
79640;SDS011;69115;49.904;14.390;2024-03-02T07:00:57;54.03;;;23.47;;
79640;SDS011;69115;49.904;14.390;2024-03-02T07:03:23;50.63;;;23.17;;
79640;SDS011;69115;49.904;14.390;2024-03-02T07:05:48;50.17;;;22.53;;
79640;SDS011;69115;49.904;14.390;2024-03-02T07:08:13;49.50;;;23.17;;
79640;SDS011;69115;49.904;14.390;2024-03-02T07:10:39;52.75;;;25.45;;
79640;SDS011;69115;49.904;14.390;2024-03-02T07:13:04;71.75;;;39.67;;
79640;SDS011;69115;49.904;14.390;2024-03-02T07:15:30;73.43;;;38.90;;
79640;SDS011;69115;49.904;14.390;2024-03-02T07:18:10;66.35;;;35.33;;
79640;SDS011;69115;49.904;14.390;2024-03-02T07:20:35;65.85;;;33.42;;
79640;SDS011;69115;49.904;14.390;2024-03-02T07:23:00;61.20;;;31.97;;
79640;SDS011;69115;49.904;14.390;2024-03-02T07:25:26;56.40;;;28.80;;
79640;SDS011;69115;49.904;14.390;2024-03-02T07:27:51;57.60;;;28.08;;
79640;SDS011;69115;49.904;14.390;2024-03-02T07:30:17;55.92;;;25.80;;
79640;SDS011;69115;49.904;14.390;2024-03-02T07:32:43;50.35;;;24.58;;
79640;SDS011;69115;49.904;14.390;2024-03-02T07:35:11;55.47;;;26.25;;
79640;SDS011;69115;49.904;14.390;2024-03-02T07:37:38;52.83;;;24.58;;
79640;SDS011;69115;49.904;14.390;2024-03-02T07:40:03;50.85;;;24.52;;
79640;SDS011;69115;49.904;14.390;2024-03-02T07:42:29;55.25;;;24.35;;
79640;SDS011;69115;49.904;14.390;2024-03-02T07:44:55;46.97;;;23.40;;
79640;SDS011;69115;49.904;14.390;2024-03-02T07:47:20;48.15;;;24.52;;
79640;SDS011;69115;49.904;14.390;2024-03-02T07:49:45;45.17;;;23.38;;
79640;SDS011;69115;49.904;14.390;2024-03-02T07:52:11;46.60;;;22.02;;
79640;SDS011;69115;49.904;14.390;2024-03-02T07:54:36;43.15;;;20.90;;
79640;SDS011;69115;49.904;14.390;2024-03-02T07:57:02;43.67;;;21.58;;
79640;SDS011;69115;49.904;14.390;2024-03-02T07:59:28;45.17;;;20.65;;
79640;SDS011;69115;49.904;14.390;2024-03-02T08:01:53;38.63;;;20.70;;
79640;SDS011;69115;49.904;14.390;2024-03-02T08:04:20;41.60;;;19.58;;
79640;SDS011;69115;49.904;14.390;2024-03-02T08:06:45;46.17;;;20.73;;
79640;SDS011;69115;49.904;14.390;2024-03-02T08:09:11;40.28;;;20.40;;
79640;SDS011;69115;49.904;14.390;2024-03-02T08:11:36;35.53;;;18.80;;
79640;SDS011;69115;49.904;14.390;2024-03-02T08:14:04;40.15;;;20.50;;
79640;SDS011;69115;49.904;14.390;2024-03-02T08:16:30;39.03;;;19.48;;
79640;SDS011;69115;49.904;14.390;2024-03-02T08:18:56;41.38;;;20.02;;
79640;SDS011;69115;49.904;14.390;2024-03-02T08:21:24;37.90;;;19.52;;
79640;SDS011;69115;49.904;14.390;2024-03-02T08:23:50;38.30;;;19.65;;
79640;SDS011;69115;49.904;14.390;2024-03-02T08:26:15;44.60;;;20.88;;
79640;SDS011;69115;49.904;14.390;2024-03-02T08:28:41;35.55;;;18.83;;
79640;SDS011;69115;49.904;14.390;2024-03-02T08:31:06;39.03;;;19.88;;
79640;SDS011;69115;49.904;14.390;2024-03-02T08:33:32;37.75;;;18.92;;
79640;SDS011;69115;49.904;14.390;2024-03-02T08:35:58;37.03;;;19.05;;
79640;SDS011;69115;49.904;14.390;2024-03-02T08:38:24;37.85;;;19.25;;
79640;SDS011;69115;49.904;14.390;2024-03-02T08:40:49;38.67;;;19.13;;
79640;SDS011;69115;49.904;14.390;2024-03-02T08:43:15;38.22;;;18.70;;
79640;SDS011;69115;49.904;14.390;2024-03-02T08:45:40;37.25;;;19.17;;
79640;SDS011;69115;49.904;14.390;2024-03-02T08:48:07;38.38;;;19.67;;
79640;SDS011;69115;49.904;14.390;2024-03-02T08:50:36;34.88;;;18.65;;
79640;SDS011;69115;49.904;14.390;2024-03-02T08:53:05;37.97;;;19.15;;
79640;SDS011;69115;49.904;14.390;2024-03-02T08:55:34;33.47;;;17.90;;
79640;SDS011;69115;49.904;14.390;2024-03-02T08:57:59;37.65;;;18.35;;
79640;SDS011;69115;49.904;14.390;2024-03-02T09:00:26;33.08;;;17.13;;
79640;SDS011;69115;49.904;14.390;2024-03-02T09:02:51;32.53;;;16.10;;
79640;SDS011;69115;49.904;14.390;2024-03-02T09:05:16;34.85;;;18.00;;
79640;SDS011;69115;49.904;14.390;2024-03-02T09:07:42;33.13;;;17.67;;
79640;SDS011;69115;49.904;14.390;2024-03-02T09:10:08;31.20;;;16.83;;
79640;SDS011;69115;49.904;14.390;2024-03-02T09:12:34;31.00;;;16.23;;
79640;SDS011;69115;49.904;14.390;2024-03-02T09:15:00;29.40;;;16.30;;
79640;SDS011;69115;49.904;14.390;2024-03-02T09:17:26;31.05;;;15.90;;
79640;SDS011;69115;49.904;14.390;2024-03-02T09:19:52;31.05;;;16.33;;
79640;SDS011;69115;49.904;14.390;2024-03-02T09:22:18;34.97;;;16.58;;
79640;SDS011;69115;49.904;14.390;2024-03-02T09:24:44;30.60;;;15.18;;
79640;SDS011;69115;49.904;14.390;2024-03-02T09:27:09;29.67;;;16.25;;
79640;SDS011;69115;49.904;14.390;2024-03-02T09:29:34;29.98;;;15.90;;
79640;SDS011;69115;49.904;14.390;2024-03-02T09:32:00;27.70;;;15.32;;
79640;SDS011;69115;49.904;14.390;2024-03-02T09:34:25;30.77;;;15.30;;
79640;SDS011;69115;49.904;14.390;2024-03-02T09:36:51;28.10;;;14.82;;
79640;SDS011;69115;49.904;14.390;2024-03-02T09:39:17;27.33;;;14.20;;
79640;SDS011;69115;49.904;14.390;2024-03-02T09:41:43;32.83;;;16.40;;
79640;SDS011;69115;49.904;14.390;2024-03-02T09:44:09;31.08;;;15.95;;
79640;SDS011;69115;49.904;14.390;2024-03-02T09:46:34;32.08;;;15.35;;
79640;SDS011;69115;49.904;14.390;2024-03-02T09:49:01;26.80;;;14.32;;
79640;SDS011;69115;49.904;14.390;2024-03-02T09:51:27;25.60;;;14.90;;
79640;SDS011;69115;49.904;14.390;2024-03-02T09:53:52;29.05;;;15.98;;
79640;SDS011;69115;49.904;14.390;2024-03-02T09:56:20;26.13;;;14.13;;
79640;SDS011;69115;49.904;14.390;2024-03-02T09:58:46;25.70;;;14.35;;
79640;SDS011;69115;49.904;14.390;2024-03-02T10:01:12;27.63;;;15.50;;
79640;SDS011;69115;49.904;14.390;2024-03-02T10:03:37;31.70;;;13.25;;
79640;SDS011;69115;49.904;14.390;2024-03-02T10:06:22;24.58;;;13.82;;
79640;SDS011;69115;49.904;14.390;2024-03-02T10:08:49;26.92;;;14.00;;
79640;SDS011;69115;49.904;14.390;2024-03-02T10:11:27;25.95;;;13.50;;
79640;SDS011;69115;49.904;14.390;2024-03-02T10:14:05;26.65;;;15.35;;
79640;SDS011;69115;49.904;14.390;2024-03-02T10:16:34;28.27;;;14.43;;
79640;SDS011;69115;49.904;14.390;2024-03-02T10:19:19;23.38;;;13.75;;
79640;SDS011;69115;49.904;14.390;2024-03-02T10:21:49;19.42;;;12.27;;
79640;SDS011;69115;49.904;14.390;2024-03-02T10:24:16;21.73;;;13.05;;
79640;SDS011;69115;49.904;14.390;2024-03-02T10:26:42;22.27;;;12.52;;
79640;SDS011;69115;49.904;14.390;2024-03-02T10:29:11;23.27;;;13.10;;
79640;SDS011;69115;49.904;14.390;2024-03-02T10:31:37;22.33;;;13.10;;
79640;SDS011;69115;49.904;14.390;2024-03-02T10:34:03;25.20;;;13.13;;
79640;SDS011;69115;49.904;14.390;2024-03-02T10:36:29;21.83;;;12.77;;
79640;SDS011;69115;49.904;14.390;2024-03-02T10:38:58;21.80;;;13.18;;
79640;SDS011;69115;49.904;14.390;2024-03-02T10:41:24;21.58;;;12.90;;
79640;SDS011;69115;49.904;14.390;2024-03-02T10:43:52;22.95;;;13.15;;
79640;SDS011;69115;49.904;14.390;2024-03-02T10:46:24;23.05;;;13.57;;
79640;SDS011;69115;49.904;14.390;2024-03-02T10:48:53;26.13;;;14.45;;
79640;SDS011;69115;49.904;14.390;2024-03-02T10:51:19;28.83;;;14.10;;
79640;SDS011;69115;49.904;14.390;2024-03-02T10:53:44;22.95;;;13.60;;
79640;SDS011;69115;49.904;14.390;2024-03-02T10:56:09;27.65;;;14.93;;
79640;SDS011;69115;49.904;14.390;2024-03-02T10:58:36;25.98;;;14.88;;
79640;SDS011;69115;49.904;14.390;2024-03-02T11:01:02;24.95;;;14.10;;
79640;SDS011;69115;49.904;14.390;2024-03-02T11:03:33;23.80;;;14.30;;
79640;SDS011;69115;49.904;14.390;2024-03-02T11:06:00;26.65;;;13.38;;
79640;SDS011;69115;49.904;14.390;2024-03-02T11:08:25;24.17;;;12.98;;
79640;SDS011;69115;49.904;14.390;2024-03-02T11:11:00;20.60;;;11.93;;
79640;SDS011;69115;49.904;14.390;2024-03-02T11:13:31;21.48;;;12.15;;
79640;SDS011;69115;49.904;14.390;2024-03-02T11:16:04;22.33;;;13.45;;
79640;SDS011;69115;49.904;14.390;2024-03-02T11:18:31;25.65;;;13.38;;
79640;SDS011;69115;49.904;14.390;2024-03-02T11:20:57;22.90;;;12.23;;
79640;SDS011;69115;49.904;14.390;2024-03-02T11:23:33;21.92;;;12.52;;
79640;SDS011;69115;49.904;14.390;2024-03-02T11:26:17;23.80;;;13.35;;
79640;SDS011;69115;49.904;14.390;2024-03-02T11:28:47;19.85;;;12.40;;
79640;SDS011;69115;49.904;14.390;2024-03-02T11:31:13;24.10;;;13.70;;
79640;SDS011;69115;49.904;14.390;2024-03-02T11:33:38;24.63;;;15.10;;
79640;SDS011;69115;49.904;14.390;2024-03-02T11:36:06;27.55;;;15.93;;
79640;SDS011;69115;49.904;14.390;2024-03-02T11:38:32;21.45;;;12.60;;
79640;SDS011;69115;49.904;14.390;2024-03-02T11:41:01;23.00;;;12.90;;
79640;SDS011;69115;49.904;14.390;2024-03-02T11:43:28;21.80;;;12.35;;
79640;SDS011;69115;49.904;14.390;2024-03-02T11:45:58;22.17;;;13.63;;
79640;SDS011;69115;49.904;14.390;2024-03-02T11:48:29;23.27;;;13.90;;
79640;SDS011;69115;49.904;14.390;2024-03-02T11:50:58;23.52;;;13.25;;
79640;SDS011;69115;49.904;14.390;2024-03-02T11:53:24;23.35;;;12.68;;
79640;SDS011;69115;49.904;14.390;2024-03-02T11:55:52;21.08;;;12.57;;
79640;SDS011;69115;49.904;14.390;2024-03-02T11:58:20;19.30;;;12.85;;
79640;SDS011;69115;49.904;14.390;2024-03-02T12:00:55;22.40;;;14.18;;
79640;SDS011;69115;49.904;14.390;2024-03-02T12:03:24;24.63;;;14.00;;
79640;SDS011;69115;49.904;14.390;2024-03-02T12:05:50;24.20;;;14.63;;
79640;SDS011;69115;49.904;14.390;2024-03-02T12:08:17;22.63;;;13.55;;
79640;SDS011;69115;49.904;14.390;2024-03-02T12:10:43;40.03;;;14.95;;
79640;SDS011;69115;49.904;14.390;2024-03-02T12:13:21;24.45;;;13.98;;
79640;SDS011;69115;49.904;14.390;2024-03-02T12:15:46;23.38;;;13.75;;
79640;SDS011;69115;49.904;14.390;2024-03-02T12:18:11;33.45;;;19.17;;
79640;SDS011;69115;49.904;14.390;2024-03-02T12:20:37;22.92;;;14.60;;
79640;SDS011;69115;49.904;14.390;2024-03-02T12:23:02;30.60;;;17.90;;
79640;SDS011;69115;49.904;14.390;2024-03-02T12:25:29;24.98;;;15.27;;
79640;SDS011;69115;49.904;14.390;2024-03-02T12:27:56;26.77;;;15.35;;
79640;SDS011;69115;49.904;14.390;2024-03-02T12:30:22;24.13;;;14.45;;
79640;SDS011;69115;49.904;14.390;2024-03-02T12:32:47;20.90;;;12.63;;
79640;SDS011;69115;49.904;14.390;2024-03-02T12:35:13;22.65;;;13.30;;
79640;SDS011;69115;49.904;14.390;2024-03-02T12:37:48;23.30;;;13.25;;
79640;SDS011;69115;49.904;14.390;2024-03-02T12:40:15;24.70;;;13.63;;
79640;SDS011;69115;49.904;14.390;2024-03-02T12:42:43;28.73;;;16.58;;
79640;SDS011;69115;49.904;14.390;2024-03-02T12:45:09;26.35;;;14.80;;
79640;SDS011;69115;49.904;14.390;2024-03-02T12:47:35;26.58;;;15.35;;
79640;SDS011;69115;49.904;14.390;2024-03-02T12:50:01;26.83;;;16.00;;
79640;SDS011;69115;49.904;14.390;2024-03-02T12:52:27;23.35;;;13.38;;
79640;SDS011;69115;49.904;14.390;2024-03-02T12:54:53;27.40;;;15.70;;
79640;SDS011;69115;49.904;14.390;2024-03-02T12:57:24;32.13;;;15.02;;
79640;SDS011;69115;49.904;14.390;2024-03-02T12:59:57;22.20;;;13.98;;
79640;SDS011;69115;49.904;14.390;2024-03-02T13:02:28;26.73;;;15.52;;
79640;SDS011;69115;49.904;14.390;2024-03-02T13:04:54;26.77;;;17.13;;
79640;SDS011;69115;49.904;14.390;2024-03-02T13:07:20;26.05;;;15.40;;
79640;SDS011;69115;49.904;14.390;2024-03-02T13:09:47;24.40;;;14.50;;
79640;SDS011;69115;49.904;14.390;2024-03-02T13:12:17;29.17;;;17.45;;
79640;SDS011;69115;49.904;14.390;2024-03-02T13:14:44;33.25;;;18.65;;
79640;SDS011;69115;49.904;14.390;2024-03-02T13:17:09;30.70;;;17.48;;
79640;SDS011;69115;49.904;14.390;2024-03-02T13:19:35;26.17;;;14.65;;
79640;SDS011;69115;49.904;14.390;2024-03-02T13:22:00;23.88;;;14.07;;
79640;SDS011;69115;49.904;14.390;2024-03-02T13:24:28;24.92;;;14.35;;
79640;SDS011;69115;49.904;14.390;2024-03-02T13:26:54;25.95;;;15.55;;
79640;SDS011;69115;49.904;14.390;2024-03-02T13:29:22;27.38;;;14.60;;
79640;SDS011;69115;49.904;14.390;2024-03-02T13:31:47;26.90;;;14.65;;
79640;SDS011;69115;49.904;14.390;2024-03-02T13:34:13;28.52;;;15.98;;
79640;SDS011;69115;49.904;14.390;2024-03-02T13:36:38;33.88;;;18.20;;
79640;SDS011;69115;49.904;14.390;2024-03-02T13:39:04;27.38;;;16.65;;
79640;SDS011;69115;49.904;14.390;2024-03-02T13:41:35;26.85;;;15.38;;
79640;SDS011;69115;49.904;14.390;2024-03-02T13:44:01;28.00;;;15.45;;
79640;SDS011;69115;49.904;14.390;2024-03-02T13:46:27;26.77;;;15.07;;
79640;SDS011;69115;49.904;14.390;2024-03-02T13:48:53;25.92;;;14.50;;
79640;SDS011;69115;49.904;14.390;2024-03-02T13:51:19;24.80;;;13.93;;
79640;SDS011;69115;49.904;14.390;2024-03-02T13:53:44;23.52;;;13.50;;
79640;SDS011;69115;49.904;14.390;2024-03-02T13:56:10;23.85;;;13.23;;
79640;SDS011;69115;49.904;14.390;2024-03-02T13:58:35;29.30;;;16.58;;
79640;SDS011;69115;49.904;14.390;2024-03-02T14:01:00;24.65;;;14.75;;
79640;SDS011;69115;49.904;14.390;2024-03-02T14:03:29;23.02;;;13.65;;